• Join FlightAware (Why Join?)
  • Login
  • US Flag 
12:23AM EDT


 

Airport Tracker/Info


-or-


 

Live Flight TrackerFlight Track Log ✈ ASQ5941 ✈ 08-Jul-2013 ✈ KAVP - KORD

Flight Track Log - Related Links

Times and Time Zones

All times are in EDT time to prevent confusion due to time zone crossing. See the ASQ5941 flight status page for this flight to view local times or setup timezone preferences in your user account.

Time Position Orientation Groundspeed Altitude Reporting Facility
EDT Latitude Longitude Course Direction KTS MPH feet Rate Location/Type
05:51PM 41.2511 -75.8347 238° Southwest 224 258 6,000  Level New York Center
05:52PM 41.2164 -75.9122 239° Southwest 234 269 7,500 2,040 Climbing New York Center
05:53PM 41.0812 -76.0381 239° Southwest  Level FlightAware Approximate
05:53PM 41.1769 -76.0058 241° Southwest 263 303 10,100  Level New York Center
05:54PM 41.0295 -76.1519 239° Southwest  Level FlightAware Approximate
05:54PM 41.1400 -76.0883 239° Southwest 263 303 12,100  Level New York Center
05:55PM 40.9762 -76.2642 237° Southwest  Level FlightAware Approximate
05:55PM 41.1028 -76.1736 240° Southwest 263 303 14,100  Level New York Center
05:56PM 40.9949 -76.3998 280° West  Level Estimated
05:56PM 41.0678 -76.2533 240° Southwest 268 308 15,300  Level New York Center
05:57PM 41.0189 -76.3647 240° Southwest 304 350 16,500 1,020 Climbing New York Center
05:58PM 40.9722 -76.4683 239° Southwest 329 379 17,400 900 Climbing New York Center
05:59PM 40.9297 -76.5717 241° Southwest 353 406 18,300 1,020 Climbing New York Center
06:00PM 40.8781 -76.6856 239° Southwest 362 417 19,500 1,080 Climbing New York Center
06:01PM 40.8242 -76.8042 239° Southwest 362 417 20,500 1,200 Climbing New York Center
06:02PM 40.7947 -76.9306 253° West 362 417 21,900 1,440 Climbing New York Center
06:03PM 40.8089 -77.0581 278° West 345 397 23,500 1,020 Climbing New York Center
06:05PM 40.8383 -77.2647 281° West 366 421 24,600 540 Climbing Cleveland Center
06:06PM 40.8733 -77.3975 289° West 371 427 25,000 180 Climbing Cleveland Center
06:07PM 40.9042 -77.5392 286° West 384 442 25,000  Level Cleveland Center
06:08PM 40.9186 -77.6950 277° West 413 475 25,000  Level Cleveland Center
06:09PM 40.9206 -77.8569 271° West 430 495 25,000  Level Cleveland Center
06:10PM 40.9222 -78.0192 271° West 441 507 25,000  Level Cleveland Center
06:11PM 40.9217 -78.1842 270° West 441 507 25,000  Level Cleveland Center
06:12PM 40.9272 -78.3489 273° West 446 513 25,000  Level Cleveland Center
06:13PM 40.9261 -78.5111 270° West 446 513 25,000  Level Cleveland Center
06:14PM 40.9267 -78.6731 270° West 446 513 25,000  Level Cleveland Center
06:15PM 40.9253 -78.8353 269° West 441 507 25,000  Level Cleveland Center
06:16PM 40.9256 -78.9947 270° West 441 507 25,000  Level Cleveland Center
06:17PM 40.9256 -79.1569 270° West 441 507 25,000  Level Cleveland Center
06:18PM 40.9253 -79.3164 270° West 441 507 25,000  Level Cleveland Center
06:19PM 40.9269 -79.4756 271° West 441 507 25,000  Level Cleveland Center
06:20PM 40.9242 -79.6406 269° West 441 507 25,000  Level Cleveland Center
06:21PM 40.9233 -79.8000 270° West 441 507 25,000  Level Cleveland Center
06:22PM 40.9222 -79.9594 270° West 441 507 25,000  Level Cleveland Center
06:23PM 40.9211 -80.1381 270° West 441 507 25,000  Level Cleveland Center
06:24PM 40.9194 -80.2972 269° West 441 507 25,000  Level Cleveland Center
06:25PM 40.9175 -80.4622 269° West 441 507 25,000  Level Cleveland Center
06:26PM 40.9156 -80.6244 269° West 441 507 25,000  Level Cleveland Center
06:27PM 40.9111 -80.7836 268° West 441 507 25,000 -240 Level Cleveland Center
06:28PM 40.9086 -80.9486 269° West 441 507 24,600 -540 Descending Cleveland Center
06:29PM 40.8833 -81.0831 256° West 436 502 24,000 -240 Descending Cleveland Center
06:31PM 40.7542 -81.3544 238° Southwest 433 498 24,000  Level Indianapolis Center
06:32PM 40.6883 -81.4906 237° Southwest 433 498 24,000  Level Indianapolis Center
06:33PM 40.6228 -81.6256 237° Southwest 432 497 24,000  Level Indianapolis Center
06:34PM 40.5569 -81.7622 238° Southwest 435 501 24,000  Level Indianapolis Center
06:35PM 40.4908 -81.8983 237° Southwest 436 502 24,000  Level Indianapolis Center
06:36PM 40.4244 -82.0339 237° Southwest 436 502 24,000  Level Indianapolis Center
06:37PM 40.3589 -82.1703 238° Southwest 438 504 24,000  Level Indianapolis Center
06:38PM 40.2914 -82.3047 237° Southwest 437 503 24,000  Level Indianapolis Center
06:39PM 40.2156 -82.4594 237° Southwest 434 499 24,000  Level Indianapolis Center
06:40PM 40.1731 -82.6031 249° West 428 493 24,000 -60 Level Indianapolis Center
06:41PM 40.2056 -82.7503 286° West 423 487 23,900  Descending Indianapolis Center
06:42PM 40.2519 -82.8917 293° West 423 487 24,000  Climbing Indianapolis Center
06:43PM 40.2983 -83.0328 293° West 422 486 24,000  Level Indianapolis Center
06:44PM 40.3447 -83.1742 293° West 422 486 24,000  Level Indianapolis Center
06:45PM 40.4000 -83.3406 294° West 424 488 24,000  Level Indianapolis Center
06:46PM 40.4456 -83.4831 293° West 423 487 24,000  Level Indianapolis Center
06:47PM 40.4908 -83.6283 292° West 427 491 24,000  Level Indianapolis Center
06:48PM 40.5372 -83.7706 293° West 423 487 24,000  Level Indianapolis Center
06:49PM 40.5839 -83.9153 293° West 426 490 24,000  Level Indianapolis Center
06:50PM 40.6303 -84.0603 293° West 427 491 24,000  Level Indianapolis Center
06:51PM 40.6750 -84.2047 292° West 424 488 24,000  Level Indianapolis Center
06:52PM 40.7289 -84.3736 293° West 426 490 24,000  Level Indianapolis Center
06:53PM 40.7747 -84.5197 293° West 428 493 24,000  Level Indianapolis Center
06:54PM 40.8200 -84.6669 292° West 429 494 24,000  Level Indianapolis Center
06:55PM 40.8697 -84.8125 294° West 430 495 24,000  Level Indianapolis Center
06:56PM 40.9172 -84.9528 294° West 427 491 24,000  Level Indianapolis Center
06:57PM 40.9661 -85.0961 294° West 430 495 24,000  Level Indianapolis Center
06:59PM 41.0264 -85.2697 295° West 430 495 24,000  Level Indianapolis Center
07:00PM 41.0742 -85.4128 294° West 431 496 24,000  Level Indianapolis Center
07:00PM 41.0992 -85.4850 295° West 430 495 24,000  Level Chicago Center
07:01PM 41.1481 -85.6303 294° West 430 495 24,000  Level Chicago Center
07:02PM 41.1969 -85.7761 294° West 430 495 24,000  Level Chicago Center
07:03PM 41.2467 -85.9222 294° West 431 496 24,000  Level Chicago Center
07:04PM 41.3092 -86.0575 302° West 427 491 24,000 -900 Level Chicago Center
07:05PM 41.3717 -86.1906 302° West 424 488 22,200 -1,980 Descending Chicago Center
07:06PM 41.4333 -86.3192 303° West 413 475 20,000 -2,640 Descending Chicago Center
07:07PM 41.5056 -86.4711 302° West 405 466 16,800 -2,580 Descending Chicago Center
07:08PM 41.5606 -86.5894 302° West 380 437 14,800 -1,920 Descending Chicago Center
07:09PM 41.6194 -86.7136 302° West 365 420 12,900 -1,320 Descending Chicago Center
07:10PM 41.6931 -86.7953 320° Northwest 359 413 12,100 -420 Descending Chicago Center
07:11PM 41.7878 -86.8128 352° North 349 402 12,100  Level Chicago Center
07:12PM 41.8789 -86.8478 344° North 347 399 12,100  Level Chicago Center
07:13PM 41.9517 -86.9269 321° Northwest 342 394 12,100 -540 Level Chicago Center
07:14PM 41.9856 -87.0478 291° West 287 330 11,100 -1,320 Descending Chicago Center
07:16PM 41.9808 -87.1464 266° West 270 311 9,400 -1,140 Descending Chicago Center
07:17PM 41.9819 -87.2319 271° West 236 272 8,800 -720 Descending Chicago Center
07:18PM 41.9833 -87.3192 271° West 235 270 8,000 -900 Descending Chicago Center
07:19PM 41.9819 -87.4039 269° West 231 266 7,000 -840 Descending Chicago Center
07:20PM 41.9833 -87.4803 271° West 211 243 6,400 -960 Descending Chicago Center
07:21PM 41.9831 -87.5717 270° West 207 238 5,100 -1,140 Descending Chicago Center
07:22PM 41.9836 -87.6431 271° West 199 229 4,100 -1,020 Descending Chicago Center
07:23PM 41.9844 -87.7128 271° West 195 224 3,100 -960 Descending Chicago Center
07:24PM 41.9839 -87.7803 269° West 189 217 2,200 -900 Descending Chicago Center